Astra — PB4187 — position and weather

sailwx.info

Track history (hours):
 
Tides and Currents Weather Stations Pressure Air Temp Water Temp Dewpoint Dewpoint Depression Visibility Wind Speed Wind Dir Waves Ship Positions

Astra

Last reported at 2014-Sep-21 23:30 UTC. Time now 2014-Sep-22 00:17 UTC.
Position N 51°18' E 004°20'.

Length 110 m.

Type: Tanker. MMSI: 244650752.

Date/timePositionNaut miles runAvg speedWind from/ knotsBaromVisibWave heightAir tempDewpointWater temp
2014-Sep-21 23:30N 51°18' E 004°20'0 0.0
2014-Sep-21 22:33N 51°18' E 004°20'0 0.0
2014-Sep-21 21:33N 51°18' E 004°20'0 0.0
2014-Sep-21 20:22N 51°18' E 004°20'0 0.0
2014-Sep-21 19:33N 51°18' E 004°20'0 0.0
2014-Sep-21 15:33N 51°18' E 004°20'0 0.0
2014-Sep-21 14:33N 51°18' E 004°20'0 0.0
2014-Sep-21 13:33N 51°18' E 004°20'0 0.2
2014-Sep-21 12:28N 51°18' E 004°20'5 5.3
2014-Sep-21 11:33N 51°22' E 004°18'5 5.2
2014-Sep-21 10:32N 51°27' E 004°14'8 7.6
2014-Sep-21 09:33N 51°34' E 004°13'7 7.4
2014-Sep-21 08:33N 51°40' E 004°21'3 3.1
2014-Sep-21 07:33N 51°42' E 004°25'8 7.5
2014-Sep-21 06:33N 51°43' E 004°37'8 8.0
2014-Sep-21 05:33N 51°51' E 004°40'6 5.6
2014-Sep-21 04:33N 51°55' E 004°46'8 8.2
2014-Sep-21 03:33N 51°58' E 004°58'6 6.0
2014-Sep-21 02:33N 52°01' E 005°07'7 7.4
2014-Sep-21 01:33N 52°08' E 005°03'8 8.2
2014-Sep-21 00:33N 52°16' E 005°01'8 7.6
2014-Sep-20 23:34N 52°23' E 004°56'4 4.1
2014-Sep-20 22:33N 52°24' E 004°49'0 0.0
2014-Sep-20 21:33N 52°24' E 004°49'0 0.0
2014-Sep-20 20:33N 52°24' E 004°49'0 0.0
2014-Sep-20 19:33N 52°24' E 004°49'0 0.0
2014-Sep-20 18:33N 52°24' E 004°49'0 0.0
2014-Sep-20 17:33N 52°24' E 004°49'0 0.0
2014-Sep-20 16:33N 52°24' E 004°49'0 0.0
2014-Sep-20 15:33N 52°24' E 004°49'0 0.0
2014-Sep-20 14:33N 52°24' E 004°49'0 0.0
2014-Sep-20 13:33N 52°24' E 004°49'0 0.0
2014-Sep-20 12:33N 52°24' E 004°49'0 0.0
2014-Sep-20 11:33N 52°24' E 004°49'0 0.0
2014-Sep-20 10:33N 52°24' E 004°49'1 1.3
2014-Sep-20 09:33N 52°25' E 004°48'0 0.0
2014-Sep-20 08:33N 52°25' E 004°48'0 0.0
2014-Sep-20 07:33N 52°25' E 004°48'0 0.0
2014-Sep-20 06:33N 52°25' E 004°48'0 0.0
2014-Sep-20 05:33N 52°25' E 004°48'0 0.0
2014-Sep-20 04:33N 52°25' E 004°48'0 0.0
2014-Sep-20 03:33N 52°25' E 004°48'0 0.0
2014-Sep-20 02:33N 52°25' E 004°48'0 0.0
2014-Sep-20 01:33N 52°25' E 004°48'0 0.0
2014-Sep-20 00:33N 52°25' E 004°48'0 0.0
2014-Sep-19 23:33N 52°25' E 004°48'0 0.1
2014-Sep-19 22:33N 52°25' E 004°48'6 6.5
2014-Sep-19 21:34N 52°22' E 004°57'7 7.2
2014-Sep-19 20:33N 52°15' E 005°01'8 7.4
2014-Sep-19 19:32N 52°08' E 005°03'8 8.1
2014-Sep-19 18:33N 52°01' E 005°09'7 6.8
2014-Sep-19 17:33N 51°58' E 005°19'6 6.4
2014-Sep-19 16:33N 51°54' E 005°27'6 5.6
2014-Sep-19 15:32N 51°54' E 005°37'57 5.0
2014-Sep-19 04:08N 51°31' E 007°02'1 1.8
2014-Sep-19 03:33N 51°32' E 007°03'0 0.0
2014-Sep-19 02:33N 51°32' E 007°03'0 0.0
2014-Sep-19 01:33N 51°32' E 007°03'0 0.0
2014-Sep-19 00:33N 51°32' E 007°03'0 0.0
2014-Sep-18 23:33N 51°32' E 007°03'0 0.0
2014-Sep-18 22:33N 51°32' E 007°03'0 0.0
2014-Sep-18 21:33N 51°32' E 007°03'0 0.0
2014-Sep-18 20:33N 51°32' E 007°03'0 0.0
2014-Sep-18 19:32N 51°32' E 007°03'0 0.0
2014-Sep-18 18:32N 51°32' E 007°03'0 0.0
2014-Sep-18 17:33N 51°32' E 007°03'0 0.0
2014-Sep-18 16:33N 51°32' E 007°03'0 0.0
2014-Sep-18 15:33N 51°32' E 007°03'0 0.0
2014-Sep-18 14:32N 51°32' E 007°03'0 0.0
2014-Sep-18 13:33N 51°32' E 007°03'0 0.0
2014-Sep-18 12:32N 51°32' E 007°03'0 0.0
2014-Sep-18 11:33N 51°32' E 007°03'0 0.0
2014-Sep-18 10:33N 51°32' E 007°03'0 0.0
2014-Sep-18 09:33N 51°32' E 007°03'0 0.0
2014-Sep-18 08:33N 51°32' E 007°03'0 0.0
2014-Sep-18 07:33N 51°32' E 007°03'0 0.0
2014-Sep-17 20:30N 51°32' E 007°03'0 0.0
2014-Sep-17 13:29N 51°32' E 007°03'19 0.8
2014-Sep-16 12:33N 51°17' E 006°43'7 6.7
2014-Sep-16 11:33N 51°11' E 006°47'128 2.6
2014-Sep-14 10:33N 49°22' E 008°30'7 7.2
2014-Sep-14 09:33N 49°15' E 008°25'9 9.2
2014-Sep-14 08:33N 49°06' E 008°22'2 2.4
2014-Sep-14 07:33N 49°04' E 008°20'0 0.0
2014-Sep-14 06:33N 49°04' E 008°20'0 0.0
2014-Sep-14 05:33N 49°04' E 008°20'0 0.0
2014-Sep-14 04:33N 49°04' E 008°20'0 0.0
2014-Sep-14 03:33N 49°04' E 008°20'0 0.0
2014-Sep-14 02:33N 49°04' E 008°20'0 0.0
2014-Sep-14 01:33N 49°04' E 008°20'0 0.0
2014-Sep-13 21:34N 49°04' E 008°20'0 0.2
2014-Sep-13 20:33N 49°04' E 008°20'0 0.0
2014-Sep-13 19:33N 49°04' E 008°20'0 0.0
2014-Sep-13 18:33N 49°04' E 008°20'0 0.0
2014-Sep-13 17:33N 49°04' E 008°20'0 0.0
2014-Sep-13 16:33N 49°04' E 008°20'0 0.0
2014-Sep-13 15:33N 49°04' E 008°20'1 0.8
2014-Sep-13 14:33N 49°04' E 008°19'1211.7
2014-Sep-13 13:33N 48°54' E 008°09'7 6.8
2014-Sep-13 12:33N 48°48' E 008°05'10 7.4
2014-Sep-13 11:14N 48°41' E 007°55'  
Track history (hours):
 
Tides and Currents Weather Stations Pressure Air Temp Water Temp Dewpoint Dewpoint Depression Visibility Wind Speed Wind Dir Waves Ship Positions

Astra

Last reported at 2014-Sep-21 23:30 UTC. Time now 2014-Sep-22 00:17 UTC.
Position N 51°18' E 004°20'.

Length 110 m.

Type: Tanker. MMSI: 244650752.

Date/timePositionNaut miles runAvg speedWind from/ knotsBaromVisibWave heightAir tempDewpointWater temp
2014-Sep-21 23:30N 51°18' E 004°20'0 0.0
2014-Sep-21 22:33N 51°18' E 004°20'0 0.0
2014-Sep-21 21:33N 51°18' E 004°20'0 0.0
2014-Sep-21 20:22N 51°18' E 004°20'0 0.0
2014-Sep-21 19:33N 51°18' E 004°20'0 0.0
2014-Sep-21 15:33N 51°18' E 004°20'0 0.0
2014-Sep-21 14:33N 51°18' E 004°20'0 0.0
2014-Sep-21 13:33N 51°18' E 004°20'0 0.2
2014-Sep-21 12:28N 51°18' E 004°20'5 5.3
2014-Sep-21 11:33N 51°22' E 004°18'5 5.2
2014-Sep-21 10:32N 51°27' E 004°14'8 7.6
2014-Sep-21 09:33N 51°34' E 004°13'7 7.4
2014-Sep-21 08:33N 51°40' E 004°21'3 3.1
2014-Sep-21 07:33N 51°42' E 004°25'8 7.5
2014-Sep-21 06:33N 51°43' E 004°37'8 8.0
2014-Sep-21 05:33N 51°51' E 004°40'6 5.6
2014-Sep-21 04:33N 51°55' E 004°46'8 8.2
2014-Sep-21 03:33N 51°58' E 004°58'6 6.0
2014-Sep-21 02:33N 52°01' E 005°07'7 7.4
2014-Sep-21 01:33N 52°08' E 005°03'8 8.2
2014-Sep-21 00:33N 52°16' E 005°01'8 7.6
2014-Sep-20 23:34N 52°23' E 004°56'4 4.1
2014-Sep-20 22:33N 52°24' E 004°49'0 0.0
2014-Sep-20 21:33N 52°24' E 004°49'0 0.0
2014-Sep-20 20:33N 52°24' E 004°49'0 0.0
2014-Sep-20 19:33N 52°24' E 004°49'0 0.0
2014-Sep-20 18:33N 52°24' E 004°49'0 0.0
2014-Sep-20 17:33N 52°24' E 004°49'0 0.0
2014-Sep-20 16:33N 52°24' E 004°49'0 0.0
2014-Sep-20 15:33N 52°24' E 004°49'0 0.0
2014-Sep-20 14:33N 52°24' E 004°49'0 0.0
2014-Sep-20 13:33N 52°24' E 004°49'0 0.0
2014-Sep-20 12:33N 52°24' E 004°49'0 0.0
2014-Sep-20 11:33N 52°24' E 004°49'0 0.0
2014-Sep-20 10:33N 52°24' E 004°49'1 1.3
2014-Sep-20 09:33N 52°25' E 004°48'0 0.0
2014-Sep-20 08:33N 52°25' E 004°48'0 0.0
2014-Sep-20 07:33N 52°25' E 004°48'0 0.0
2014-Sep-20 06:33N 52°25' E 004°48'0 0.0
2014-Sep-20 05:33N 52°25' E 004°48'0 0.0
2014-Sep-20 04:33N 52°25' E 004°48'0 0.0
2014-Sep-20 03:33N 52°25' E 004°48'0 0.0
2014-Sep-20 02:33N 52°25' E 004°48'0 0.0
2014-Sep-20 01:33N 52°25' E 004°48'0 0.0
2014-Sep-20 00:33N 52°25' E 004°48'0 0.0
2014-Sep-19 23:33N 52°25' E 004°48'0 0.1
2014-Sep-19 22:33N 52°25' E 004°48'6 6.5
2014-Sep-19 21:34N 52°22' E 004°57'7 7.2
2014-Sep-19 20:33N 52°15' E 005°01'8 7.4
2014-Sep-19 19:32N 52°08' E 005°03'8 8.1
2014-Sep-19 18:33N 52°01' E 005°09'7 6.8
2014-Sep-19 17:33N 51°58' E 005°19'6 6.4
2014-Sep-19 16:33N 51°54' E 005°27'6 5.6
2014-Sep-19 15:32N 51°54' E 005°37'57 5.0
2014-Sep-19 04:08N 51°31' E 007°02'1 1.8
2014-Sep-19 03:33N 51°32' E 007°03'0 0.0
2014-Sep-19 02:33N 51°32' E 007°03'0 0.0
2014-Sep-19 01:33N 51°32' E 007°03'0 0.0
2014-Sep-19 00:33N 51°32' E 007°03'0 0.0
2014-Sep-18 23:33N 51°32' E 007°03'0 0.0
2014-Sep-18 22:33N 51°32' E 007°03'0 0.0
2014-Sep-18 21:33N 51°32' E 007°03'0 0.0
2014-Sep-18 20:33N 51°32' E 007°03'0 0.0
2014-Sep-18 19:32N 51°32' E 007°03'0 0.0
2014-Sep-18 18:32N 51°32' E 007°03'0 0.0
2014-Sep-18 17:33N 51°32' E 007°03'0 0.0
2014-Sep-18 16:33N 51°32' E 007°03'0 0.0
2014-Sep-18 15:33N 51°32' E 007°03'0 0.0
2014-Sep-18 14:32N 51°32' E 007°03'0 0.0
2014-Sep-18 13:33N 51°32' E 007°03'0 0.0
2014-Sep-18 12:32N 51°32' E 007°03'0 0.0
2014-Sep-18 11:33N 51°32' E 007°03'0 0.0
2014-Sep-18 10:33N 51°32' E 007°03'0 0.0
2014-Sep-18 09:33N 51°32' E 007°03'0 0.0
2014-Sep-18 08:33N 51°32' E 007°03'0 0.0
2014-Sep-18 07:33N 51°32' E 007°03'0 0.0
2014-Sep-17 20:30N 51°32' E 007°03'0 0.0
2014-Sep-17 13:29N 51°32' E 007°03'19 0.8
2014-Sep-16 12:33N 51°17' E 006°43'7 6.7
2014-Sep-16 11:33N 51°11' E 006°47'128 2.6
2014-Sep-14 10:33N 49°22' E 008°30'7 7.2
2014-Sep-14 09:33N 49°15' E 008°25'9 9.2
2014-Sep-14 08:33N 49°06' E 008°22'2 2.4
2014-Sep-14 07:33N 49°04' E 008°20'0 0.0
2014-Sep-14 06:33N 49°04' E 008°20'0 0.0
2014-Sep-14 05:33N 49°04' E 008°20'0 0.0
2014-Sep-14 04:33N 49°04' E 008°20'0 0.0
2014-Sep-14 03:33N 49°04' E 008°20'0 0.0
2014-Sep-14 02:33N 49°04' E 008°20'0 0.0
2014-Sep-14 01:33N 49°04' E 008°20'0 0.0
2014-Sep-13 21:34N 49°04' E 008°20'0 0.2
2014-Sep-13 20:33N 49°04' E 008°20'0 0.0
2014-Sep-13 19:33N 49°04' E 008°20'0 0.0
2014-Sep-13 18:33N 49°04' E 008°20'0 0.0
2014-Sep-13 17:33N 49°04' E 008°20'0 0.0
2014-Sep-13 16:33N 49°04' E 008°20'0 0.0
2014-Sep-13 15:33N 49°04' E 008°20'1 0.8
2014-Sep-13 14:33N 49°04' E 008°19'1211.7
2014-Sep-13 13:33N 48°54' E 008°09'7 6.8
2014-Sep-13 12:33N 48°48' E 008°05'10 7.4
2014-Sep-13 11:14N 48°41' E 007°55'  

Dump ship's entire track history